createdAt,value
2023-02-25T00:06:14.502Z,11.82
2023-02-25T00:09:48.306Z,13.93
2023-02-25T00:13:18.205Z,9.63
2023-02-25T00:16:33.004Z,12.85
2023-02-25T00:19:50.659Z,13.20
2023-02-25T00:23:09.491Z,9.38
2023-02-25T00:26:46.194Z,8.70
2023-02-25T00:33:42.604Z,10.23
2023-02-25T00:40:52.762Z,7.55
2023-02-25T00:44:29.821Z,10.10
2023-02-25T00:48:04.235Z,10.50
2023-02-25T00:51:39.137Z,7.07
2023-02-25T00:55:15.437Z,7.43
2023-02-25T00:58:57.615Z,10.82
2023-02-25T01:02:15.561Z,8.25
2023-02-25T01:05:49.634Z,11.55
2023-02-25T01:09:24.572Z,12.10
2023-02-25T01:12:51.489Z,9.73
2023-02-25T01:16:29.485Z,10.63
2023-02-25T01:19:57.795Z,9.20
2023-02-25T01:23:34.553Z,7.40
2023-02-25T01:27:09.912Z,11.07
2023-02-25T01:30:38.797Z,10.88
2023-02-25T01:34:01.370Z,12.00
2023-02-25T01:37:18.557Z,9.65
2023-02-25T01:40:39.413Z,11.68
2023-02-25T01:44:22.020Z,9.07
2023-02-25T01:47:55.085Z,6.72
2023-02-25T01:51:16.127Z,19.85
2023-02-25T01:54:36.481Z,9.05
2023-02-25T01:57:54.040Z,10.48
2023-02-25T02:01:18.264Z,10.30
2023-02-25T02:04:40.609Z,11.38
2023-02-25T02:08:00.300Z,7.18
2023-02-25T02:11:22.344Z,9.35
2023-02-25T02:14:52.113Z,9.02
2023-02-25T02:18:13.272Z,9.50
2023-02-25T02:22:10.306Z,11.60
2023-02-25T02:26:22.312Z,9.15
2023-02-25T02:30:02.174Z,7.82
2023-02-25T02:33:48.052Z,7.75
2023-02-25T02:37:46.792Z,10.60
2023-02-25T02:41:09.022Z,7.50
2023-02-25T02:44:50.793Z,9.38
2023-02-25T02:48:42.874Z,10.85
2023-02-25T02:52:17.704Z,11.73
2023-02-25T02:55:52.740Z,9.20
2023-02-25T02:59:34.149Z,8.43
2023-02-25T03:03:00.613Z,10.30
2023-02-25T03:06:41.512Z,12.85
2023-02-25T03:10:11.677Z,7.95
2023-02-25T03:13:43.862Z,10.20
2023-02-25T03:17:07.613Z,7.03
2023-02-25T03:20:49.676Z,8.02
2023-02-25T03:24:16.089Z,6.68
2023-02-25T03:27:43.824Z,5.97
2023-02-25T03:31:32.055Z,8.00
2023-02-25T03:34:58.178Z,6.62
2023-02-25T03:38:27.670Z,12.00
2023-02-25T03:42:13.642Z,7.65
2023-02-25T03:45:33.575Z,14.65
2023-02-25T03:49:23.268Z,9.43
2023-02-25T03:52:43.388Z,7.87
2023-02-25T03:56:10.850Z,8.73
2023-02-25T03:59:28.373Z,9.68
2023-02-25T04:02:57.105Z,7.18
2023-02-25T04:06:32.726Z,10.27
2023-02-25T04:09:50.693Z,7.97
2023-02-25T04:17:16.068Z,6.62
2023-02-25T04:20:43.937Z,10.02
2023-02-25T04:24:16.366Z,6.62
2023-02-25T04:27:40.749Z,8.20
2023-02-25T04:31:00.859Z,8.70
2023-02-25T04:34:25.463Z,10.18
2023-02-25T04:37:43.986Z,9.20
2023-02-25T04:41:19.932Z,8.77
2023-02-25T04:44:57.470Z,10.85
2023-02-25T04:48:14.595Z,8.57
2023-02-25T04:52:00.358Z,11.68
2023-02-25T04:55:22.016Z,11.65
2023-02-25T04:58:58.362Z,10.43
2023-02-25T05:02:25.559Z,12.20
2023-02-25T05:05:43.802Z,13.65
2023-02-25T05:09:10.561Z,8.18
2023-02-25T05:12:51.122Z,8.52
2023-02-25T05:16:19.536Z,11.32
2023-02-25T05:19:42.674Z,8.32
2023-02-25T05:23:30.628Z,8.23
2023-02-25T05:27:12.378Z,4.62
2023-02-25T05:30:31.770Z,4.90
2023-02-25T05:34:10.067Z,6.72
2023-02-25T05:37:50.037Z,2.78
2023-02-25T05:41:15.006Z,5.30
2023-02-25T05:44:44.782Z,2.78
2023-02-25T05:48:02.589Z,1.80
2023-02-25T05:52:14.348Z,3.28
2023-02-25T05:55:33.778Z,6.07
2023-02-25T05:59:13.245Z,2.72
2023-02-25T06:02:33.749Z,2.05
2023-02-25T06:06:11.253Z,2.15
2023-02-25T06:09:45.813Z,1.73
2023-02-25T06:13:03.539Z,3.15
2023-02-25T06:16:26.402Z,3.42
2023-02-25T06:19:53.887Z,3.10
2023-02-25T06:23:32.042Z,2.55
2023-02-25T06:26:50.315Z,2.87
2023-02-25T06:30:17.612Z,1.00
2023-02-25T06:34:03.286Z,2.53
2023-02-25T06:37:38.554Z,1.35
2023-02-25T06:41:22.605Z,1.17
2023-02-25T06:45:10.987Z,1.08
2023-02-25T06:48:43.686Z,0.98
2023-02-25T06:52:15.425Z,1.48
2023-02-25T06:55:53.186Z,1.10
2023-02-25T06:59:22.142Z,0.45
2023-02-25T07:02:44.787Z,0.73
2023-02-25T07:06:08.990Z,1.12
2023-02-25T07:09:31.951Z,2.35
2023-02-25T07:13:03.648Z,0.62
2023-02-25T07:16:37.663Z,1.45
2023-02-25T07:20:18.568Z,1.27
2023-02-25T07:23:42.296Z,3.08
2023-02-25T07:27:18.543Z,1.08
2023-02-25T07:30:51.114Z,1.80
2023-02-25T07:34:13.399Z,1.12
2023-02-25T07:37:49.864Z,1.80
2023-02-25T07:41:23.617Z,3.60
2023-02-25T07:45:03.785Z,1.65
2023-02-25T07:48:43.635Z,0.60
2023-02-25T07:52:17.107Z,1.17
2023-02-25T07:55:40.591Z,0.62
2023-02-25T07:59:06.442Z,0.73
2023-02-25T08:05:45.482Z,1.98
2023-02-25T08:09:25.540Z,0.35
2023-02-25T08:12:58.809Z,0.62
2023-02-25T08:20:09.430Z,1.98
2023-02-25T08:23:37.430Z,1.95
2023-02-25T08:27:14.382Z,1.25
2023-02-25T08:30:46.128Z,5.53
2023-02-25T08:34:25.792Z,0.62
2023-02-25T08:37:54.682Z,1.37
2023-02-25T08:41:40.582Z,1.27
2023-02-25T08:45:15.884Z,1.10
2023-02-25T08:48:52.908Z,1.42
2023-02-25T08:56:11.241Z,2.35
2023-02-25T08:59:36.506Z,2.85
2023-02-25T09:03:05.548Z,2.58
2023-02-25T09:06:36.384Z,1.50
2023-02-25T09:10:14.802Z,2.47
2023-02-25T09:13:45.857Z,1.87
2023-02-25T09:17:08.029Z,1.52
2023-02-25T09:20:53.576Z,1.65
2023-02-25T09:24:15.307Z,1.85
2023-02-25T09:27:34.702Z,1.83
2023-02-25T09:31:08.631Z,1.02
2023-02-25T09:34:37.102Z,1.50
2023-02-25T09:37:54.934Z,0.95
2023-02-25T09:42:11.495Z,1.30
2023-02-25T09:45:57.854Z,3.70
2023-02-25T09:50:02.384Z,6.15
2023-02-25T09:53:15.948Z,2.30
2023-02-25T09:56:36.774Z,2.03
2023-02-25T09:59:53.812Z,0.85
2023-02-25T10:03:50.968Z,2.05
2023-02-25T10:07:23.130Z,3.87
2023-02-25T10:10:57.159Z,1.87
2023-02-25T10:15:10.270Z,0.65
2023-02-25T10:20:03.935Z,1.00
2023-02-25T10:27:41.628Z,2.80
2023-02-25T10:34:42.611Z,1.27
2023-02-25T10:34:45.379Z,0.70
2023-02-25T10:41:54.017Z,1.65
2023-02-25T10:45:32.493Z,0.62
2023-02-25T11:00:09.961Z,0.60
2023-02-25T11:11:19.778Z,0.60
2023-02-25T11:14:57.801Z,2.62
2023-02-25T11:18:36.460Z,1.12
2023-02-25T11:22:25.362Z,1.45
2023-02-25T11:29:43.300Z,3.33
2023-02-25T11:33:05.476Z,0.85
2023-02-25T11:36:26.221Z,1.40
2023-02-25T11:39:52.683Z,0.50
2023-02-25T11:43:49.926Z,3.87
2023-02-25T11:47:25.762Z,1.00
2023-02-25T11:51:12.299Z,1.52
2023-02-25T11:54:36.680Z,0.90
2023-02-25T11:58:12.330Z,0.60
2023-02-25T12:01:59.999Z,0.60
2023-02-25T12:05:50.990Z,0.98
2023-02-25T12:09:02.833Z,0.60
2023-02-25T12:12:27.721Z,0.68
2023-02-25T12:16:27.546Z,2.08
2023-02-25T12:20:19.823Z,0.52
2023-02-25T12:23:45.136Z,1.37
2023-02-25T12:27:08.050Z,0.88
2023-02-25T12:30:36.435Z,1.12
2023-02-25T12:33:55.427Z,0.80
2023-02-25T12:37:17.214Z,1.17
2023-02-25T12:40:52.694Z,1.12
2023-02-25T12:44:47.284Z,1.00
2023-02-25T12:52:15.467Z,1.50
2023-02-25T12:56:25.276Z,0.57
2023-02-25T13:00:09.883Z,1.42
2023-02-25T13:03:39.909Z,1.23
2023-02-25T13:07:08.956Z,0.50
2023-02-25T13:10:53.885Z,0.50
2023-02-25T13:14:32.999Z,0.73
2023-02-25T13:18:00.680Z,0.93
2023-02-25T13:21:25.326Z,0.43
2023-02-25T13:25:32.441Z,0.73
2023-02-25T13:28:54.010Z,0.50
2023-02-25T13:32:04.014Z,2.25
2023-02-25T13:35:26.450Z,1.58
2023-02-25T13:39:01.620Z,0.32
2023-02-25T13:42:25.433Z,1.00
2023-02-25T13:45:57.398Z,0.82
2023-02-25T13:50:26.907Z,1.12
2023-02-25T13:54:26.086Z,0.93
2023-02-25T13:58:01.781Z,0.52
2023-02-25T14:01:28.354Z,0.32
2023-02-25T14:04:53.361Z,2.60
2023-02-25T14:08:27.698Z,3.37
2023-02-25T14:12:03.117Z,1.40
2023-02-25T14:15:38.343Z,1.15
2023-02-25T14:19:46.508Z,0.90
2023-02-25T14:27:36.930Z,1.55
2023-02-25T14:31:14.767Z,0.73
2023-02-25T14:35:25.970Z,0.25
2023-02-25T14:38:38.519Z,1.55
2023-02-25T14:42:13.808Z,1.27
2023-02-25T14:45:44.826Z,0.88
2023-02-25T14:49:42.973Z,1.95
2023-02-25T14:53:24.766Z,1.52
2023-02-25T14:57:37.256Z,0.98
2023-02-25T15:01:08.870Z,1.05
2023-02-25T15:04:42.314Z,1.48
2023-02-25T15:08:26.556Z,0.62
2023-02-25T15:16:03.217Z,0.85
2023-02-25T15:19:28.726Z,0.90
2023-02-25T15:23:16.784Z,1.00
2023-02-25T15:26:52.447Z,0.70
2023-02-25T15:30:13.944Z,4.57
2023-02-25T15:33:44.127Z,0.70
2023-02-25T15:37:30.320Z,1.12
2023-02-25T15:40:50.775Z,0.90
2023-02-25T15:44:34.088Z,1.62
2023-02-25T15:47:37.971Z,0.73
2023-02-25T15:51:01.788Z,1.02
2023-02-25T15:54:28.651Z,0.60
2023-02-25T15:57:47.261Z,0.75
2023-02-25T16:01:43.044Z,0.52
2023-02-25T16:05:32.504Z,0.82
2023-02-25T16:09:19.270Z,0.45
2023-02-25T16:12:44.256Z,0.93
2023-02-25T16:16:07.410Z,0.57
2023-02-25T16:19:35.540Z,1.75
2023-02-25T16:22:57.627Z,0.80
2023-02-25T16:27:00.497Z,1.45
2023-02-25T16:30:24.801Z,2.03
2023-02-25T16:34:20.240Z,0.55
2023-02-25T16:37:57.786Z,3.03
2023-02-25T16:41:16.884Z,2.03
2023-02-25T16:44:42.859Z,1.90
2023-02-25T16:48:08.739Z,1.62
2023-02-25T16:51:41.619Z,0.55
2023-02-25T16:55:23.305Z,0.57
2023-02-25T17:03:16.007Z,1.15
2023-02-25T17:07:12.693Z,1.60
2023-02-25T17:10:36.284Z,1.58
2023-02-25T17:14:01.532Z,1.33
2023-02-25T17:17:41.398Z,1.70
2023-02-25T17:21:34.628Z,1.17
2023-02-25T17:25:06.165Z,3.30
2023-02-25T17:28:42.205Z,3.00
2023-02-25T17:31:59.872Z,1.92
2023-02-25T17:35:39.524Z,3.30
2023-02-25T17:39:33.407Z,3.70
2023-02-25T17:43:27.337Z,2.08
2023-02-25T17:47:40.797Z,1.33
2023-02-25T17:51:18.091Z,5.90
2023-02-25T17:55:03.553Z,1.90
2023-02-25T17:58:38.963Z,2.30
2023-02-25T18:02:28.605Z,1.55
2023-02-25T18:06:30.554Z,1.80
2023-02-25T18:09:53.702Z,1.73
2023-02-25T18:14:00.814Z,3.87
2023-02-25T18:17:41.679Z,6.20
2023-02-25T18:21:26.611Z,1.40
2023-02-25T18:26:07.203Z,1.48
2023-02-25T18:29:27.904Z,1.30
2023-02-25T18:32:50.917Z,2.35
2023-02-25T18:41:12.506Z,2.03
2023-02-25T18:44:34.948Z,2.40
2023-02-25T18:48:20.605Z,1.95
2023-02-25T18:52:00.173Z,2.17
2023-02-25T18:55:42.330Z,1.27
2023-02-25T19:03:39.662Z,1.95
2023-02-25T19:07:52.121Z,2.00
2023-02-25T19:11:24.130Z,1.65
2023-02-25T19:15:18.082Z,0.68
2023-02-25T19:18:53.294Z,1.15
2023-02-25T19:22:28.043Z,3.15
2023-02-25T19:26:01.554Z,3.72
2023-02-25T19:33:30.726Z,2.83
2023-02-25T19:37:07.499Z,1.43
2023-02-25T19:40:31.145Z,3.25
2023-02-25T19:44:10.999Z,2.42
2023-02-25T19:47:58.494Z,1.92
2023-02-25T19:51:33.740Z,2.17
2023-02-25T19:58:56.438Z,1.92
2023-02-25T20:06:13.565Z,2.72
2023-02-25T20:09:46.749Z,1.35
2023-02-25T20:13:20.152Z,1.08
2023-02-25T20:16:53.239Z,3.08
2023-02-25T20:20:29.383Z,0.80
2023-02-25T20:24:09.169Z,1.00
2023-02-25T20:27:28.496Z,0.68
2023-02-25T20:31:15.898Z,1.20
2023-02-25T20:34:50.864Z,1.70
2023-02-25T20:38:42.928Z,3.97
2023-02-25T20:42:23.945Z,2.00
2023-02-25T20:45:59.556Z,1.87
2023-02-25T20:49:43.629Z,1.48
2023-02-25T20:53:14.502Z,0.93
2023-02-25T20:57:01.805Z,1.15
2023-02-25T21:00:30.483Z,0.80
2023-02-25T21:03:54.763Z,5.07
2023-02-25T21:24:01.895Z,1.07
2023-02-25T21:27:40.057Z,0.70
2023-02-25T21:31:18.974Z,1.08
2023-02-25T21:34:55.728Z,1.95
2023-02-25T21:42:36.624Z,3.50
2023-02-25T21:46:58.542Z,0.90
2023-02-25T21:54:22.024Z,1.90
2023-02-25T21:57:59.266Z,2.08
2023-02-25T22:01:42.355Z,3.67
2023-02-25T22:05:20.448Z,2.00
2023-02-25T22:08:58.268Z,6.45
2023-02-25T22:16:12.621Z,4.00
2023-02-25T22:20:17.706Z,1.75
2023-02-25T22:28:00.626Z,0.93
2023-02-25T22:31:27.383Z,1.95
2023-02-25T22:34:50.474Z,1.37
2023-02-25T22:38:33.900Z,3.33
2023-02-25T22:46:21.312Z,2.00
2023-02-25T22:50:54.924Z,1.30
2023-02-25T22:58:54.324Z,1.02
2023-02-25T23:02:31.724Z,1.37
2023-02-25T23:10:11.098Z,3.62
2023-02-25T23:22:02.792Z,0.88
2023-02-25T23:25:52.939Z,0.55
2023-02-25T23:33:22.216Z,1.30
2023-02-25T23:40:51.060Z,2.78
2023-02-25T23:44:28.887Z,1.10
2023-02-25T23:51:53.628Z,0.80
2023-02-25T23:55:29.912Z,2.22
2023-02-25T23:59:09.094Z,1.42
